Weather History for Petersburg, WV

Change the Weather History Date:

Wednesday, November 9, 2011

  Actual Average (KEKN) Record (KEKN)
Temperature  
Mean Temperature 52 °F 44 °F  
Max Temperature 75 °F 56 °F 79 °F (1975)
Min Temperature 28 °F 32 °F 6 °F (1976)
Degree Days  
Heating Degree Days 14 21  
Month to date heating degree days 178  
Since 1 July heating degree days 769  
Cooling Degree Days 0 0  
Month to date cooling degree days 0  
Year to date cooling degree days 475  
Growing Degree Days 2 (Base 50)    
Moisture  
Dew Point 34 °F    
Average Humidity 64    
Maximum Humidity 100    
Minimum Humidity 18    
Precipitation  
Precipitation 0.00 in 0.10 in 1.50 in (1913)
Month to date precipitation 0.98  
Year to date precipitation 40.27  
Snow  
Snow 0.00 in - - ()
Month to date snowfall  
Since 1 September snowfall  
Snow Depth -    
Sea Level Pressure  
Sea Level Pressure 30.07 in    
Wind  
Wind Speed 1 mph (SSE)    
Max Wind Speed 9 mph    
Max Gust Speed 17 mph    
Visibility 9 miles    
Events      
T = Trace of Precipitation, MM = Missing Value Source: NWS Daily Summary

Daily Weather History Graph

Daily Weather History Graph

Search for Another Location

Airport:

Trip Planner

Search our weather history database for the weather conditions in past years. The results will help you decide how hot, cold, wet, or windy it might be!

Date:

Astronomy

Nov. 09, 2011 Rise Set
Actual Time 6:52 AM EST 5:07 PM EST
Civil Twilight 6:24 AM EST 5:35 PM EST
Nautical Twilight 5:52 AM EST 6:07 PM EST
Astronomical Twilight 5:21 AM EST 6:39 PM EST
Moon 4:18 PM EST (11/9) 5:46 AM EST (11/9)
Length of Visible Light 11h 11m
Length of Day
10h 15m
Waxing Gibbous, 99% of the Moon is Illuminated
Nov 9
Waxing Gibbous
Nov 10
Full
Nov 18
Last Quarter
Nov 25
New
Dec 2
First Quarter

Hourly Weather History & Observations

Time (EST) Temp. Dew Point Humidity Pressure Visibility Wind Dir Wind Speed Gust Speed Precip Events Conditions
12:15 AM 35.6 °F 32.0 °F 87% 30.20 in 10.0 mi Calm Calm - N/A   Clear
12:35 AM 33.8 °F 32.0 °F 93% 30.19 in 10.0 mi Calm Calm - N/A   Clear
12:55 AM 33.8 °F 32.0 °F 93% 30.19 in 10.0 mi Calm Calm - N/A   Clear
1:15 AM 33.8 °F 32.0 °F 93% 30.20 in 10.0 mi Calm Calm - N/A   Clear
1:35 AM 32.0 °F 32.0 °F 100% 30.20 in 10.0 mi Calm Calm - N/A   Clear
2:15 AM 33.8 °F 32.0 °F 93% 30.19 in 7.0 mi Calm Calm - N/A   Clear
2:35 AM 32.0 °F 30.2 °F 93% 30.19 in 7.0 mi Calm Calm - N/A   Clear
2:55 AM 32.0 °F 32.0 °F 100% 30.19 in 7.0 mi Calm Calm - N/A   Clear
3:15 AM 32.0 °F 30.2 °F 93% 30.18 in 10.0 mi Calm Calm - N/A   Clear
3:35 AM 32.0 °F 32.0 °F 100% 30.18 in 3.0 mi Calm Calm - N/A   Clear
3:55 AM 32.0 °F 30.2 °F 93% 30.17 in 7.0 mi Calm Calm - N/A   Clear
4:15 AM 32.0 °F 30.2 °F 93% 30.17 in 7.0 mi Calm Calm - N/A   Clear
4:35 AM 28.4 °F 26.6 °F 93% 30.17 in 10.0 mi Calm Calm - N/A   Clear
4:55 AM 30.2 °F 28.4 °F 93% 30.17 in 5.0 mi Calm Calm - N/A   Clear
5:15 AM 30.2 °F 28.4 °F 93% 30.17 in 10.0 mi Calm Calm - N/A   Clear
5:35 AM 30.2 °F 28.4 °F 93% 30.17 in 7.0 mi Calm Calm - N/A   Clear
5:55 AM 30.2 °F 28.4 °F 93% 30.17 in 7.0 mi Calm Calm - N/A   Clear
6:15 AM 28.4 °F 26.6 °F 93% 30.16 in 10.0 mi Calm Calm - N/A   Clear
6:35 AM 28.4 °F 26.6 °F 93% 30.17 in 10.0 mi Calm Calm - N/A   Clear
6:55 AM 30.2 °F 28.4 °F 93% 30.17 in 7.0 mi Calm Calm - N/A   Clear
7:15 AM 30.2 °F 28.4 °F 93% 30.17 in 10.0 mi Calm Calm - N/A   Clear
7:35 AM 30.2 °F 28.4 °F 93% 30.17 in 7.0 mi Calm Calm - N/A   Clear
7:55 AM 32.0 °F 30.2 °F 93% 30.17 in 7.0 mi Calm Calm - N/A   Clear
8:15 AM 33.8 °F 32.0 °F 93% 30.17 in 10.0 mi Calm Calm - N/A   Clear
8:35 AM 35.6 °F 32.0 °F 87% 30.17 in 10.0 mi Calm Calm - N/A   Clear
9:15 AM 41.0 °F 35.6 °F 81% 30.16 in 10.0 mi Calm Calm - N/A   Clear
9:35 AM 42.8 °F 35.6 °F 76% 30.15 in 10.0 mi Calm Calm - N/A   Clear
9:55 AM 44.6 °F 35.6 °F 71% 30.14 in 10.0 mi Calm Calm - N/A   Clear
10:15 AM 46.4 °F 35.6 °F 66% 30.13 in 10.0 mi Calm Calm - N/A   Clear
10:35 AM 50.0 °F 37.4 °F 62% 30.12 in 10.0 mi Calm Calm - N/A   Clear
10:55 AM 51.8 °F 35.6 °F 54% 30.11 in 10.0 mi Calm Calm - N/A   Clear
11:15 AM 53.6 °F 37.4 °F 54% 30.09 in 10.0 mi Calm Calm - N/A   Clear
11:35 AM 57.2 °F 37.4 °F 48% 30.07 in 10.0 mi Calm Calm - N/A   Clear
11:55 AM 60.8 °F 39.2 °F 45% 30.05 in 10.0 mi Calm Calm - N/A   Clear
12:15 PM 62.6 °F 39.2 °F 42% 30.03 in 10.0 mi Calm Calm - N/A   Clear
12:35 PM 64.4 °F 41.0 °F 42% 30.01 in 10.0 mi Calm Calm - N/A   Clear
12:55 PM 68.0 °F 41.0 °F 37% 30.00 in 10.0 mi Calm Calm - N/A   Clear
1:15 PM 69.8 °F 42.8 °F 38% 29.99 in 10.0 mi Calm Calm - N/A   Clear
1:35 PM 69.8 °F 41.0 °F 35% 29.98 in 10.0 mi Calm Calm - N/A   Clear
1:55 PM 71.6 °F 41.0 °F 33% 29.97 in 10.0 mi NW 3.5 mph - N/A   Clear
2:15 PM 73.4 °F 35.6 °F 25% 29.96 in 10.0 mi SSW 8.1 mph - N/A   Clear
2:35 PM 75.2 °F 32.0 °F 21% 29.94 in 10.0 mi South 5.8 mph - N/A   Clear
2:55 PM 75.2 °F 30.2 °F 19% 29.93 in 10.0 mi South 6.9 mph - N/A   Clear
3:15 PM 75.2 °F 28.4 °F 18% 29.93 in 10.0 mi South 6.9 mph - N/A   Clear
3:35 PM 73.4 °F 30.2 °F 20% 29.93 in 10.0 mi South 8.1 mph - N/A   Clear
3:55 PM 73.4 °F 28.4 °F 19% 29.93 in 10.0 mi South 8.1 mph 17.3 mph N/A   Clear
4:15 PM 69.8 °F 33.8 °F 27% 29.93 in 10.0 mi ESE 6.9 mph - N/A   Clear
4:35 PM 66.2 °F 37.4 °F 35% 29.93 in 10.0 mi SE 9.2 mph - N/A   Clear
4:55 PM 64.4 °F 39.2 °F 40% 29.93 in 10.0 mi ESE 8.1 mph - N/A   Clear
5:15 PM 64.4 °F 39.2 °F 40% 29.94 in 10.0 mi SE 6.9 mph - N/A   Clear
5:35 PM 60.8 °F 39.2 °F 45% 29.94 in 10.0 mi ESE 5.8 mph - N/A   Clear
5:55 PM 59.0 °F 39.2 °F 48% 29.94 in 10.0 mi Calm Calm - N/A   Clear
6:15 PM 62.6 °F 37.4 °F 39% 29.94 in 10.0 mi East 6.9 mph - N/A   Clear
6:55 PM 59.0 °F 39.2 °F 48% 29.94 in 10.0 mi Calm Calm - N/A   Clear
7:15 PM 59.0 °F 39.2 °F 48% 29.94 in 10.0 mi Calm Calm - N/A   Clear
7:35 PM 62.6 °F 37.4 °F 39% 29.95 in 10.0 mi South 4.6 mph - N/A   Clear
7:55 PM 62.6 °F 39.2 °F 42% 29.94 in 10.0 mi SE 5.8 mph - N/A   Scattered Clouds
8:15 PM 62.6 °F 41.0 °F 45% 29.94 in 10.0 mi SSE 4.6 mph - N/A   Overcast
8:35 PM 62.6 °F 41.0 °F 45% 29.94 in 10.0 mi SE 4.6 mph - N/A   Overcast
9:15 PM 62.6 °F 42.8 °F 48% 29.94 in 10.0 mi SSE 9.2 mph - N/A   Overcast
9:35 PM 62.6 °F 42.8 °F 48% 29.94 in 10.0 mi SSE 8.1 mph - N/A   Overcast
9:55 PM 62.6 °F 42.8 °F 48% 29.94 in 10.0 mi SSE 8.1 mph - N/A   Overcast
10:15 PM 62.6 °F 42.8 °F 48% 29.94 in 10.0 mi South 8.1 mph - N/A   Mostly Cloudy
10:35 PM 62.6 °F 42.8 °F 48% 29.94 in 10.0 mi South 6.9 mph - N/A   Mostly Cloudy
10:55 PM 62.6 °F 42.8 °F 48% 29.93 in 10.0 mi South 4.6 mph - N/A   Overcast
11:15 PM 60.8 °F 42.8 °F 52% 29.93 in 10.0 mi SSE 8.1 mph - N/A   Overcast
11:35 PM 60.8 °F 44.6 °F 55% 29.93 in 10.0 mi SE 3.5 mph - N/A   Overcast
11:55 PM 60.8 °F 44.6 °F 55% 29.93 in 10.0 mi SE 6.9 mph - N/A   Overcast